Time;durP1;ratioP1;P1;durP2;ratioP2;P2;SDS_P1;SDS_P2;PMS_P1;PMS_P2;Temp;Humidity;BMP_temperature;BMP_pressure;BME280_temperature;BME280_humidity;BME280_pressure;Samples;Min_cycle;Max_cycle;Signal;HPM_P1;HPM_P2
2022/02/25 00:00:43;;;;;;;10.00;1.93;;;3.90;99.90;;;;;;5099967;28;20429;-77
2022/02/25 00:03:13;;;;;;;9.53;2.53;;;4.00;99.90;;;;;;5099428;28;20433;-77
2022/02/25 00:05:40;;;;;;;7.53;1.87;;;4.00;99.90;;;;;;5098202;28;20461;-77
2022/02/25 00:08:07;;;;;;;8.07;1.93;;;4.00;99.90;;;;;;5099683;28;20469;-76
2022/02/25 00:10:36;;;;;;;4.73;1.80;;;4.00;99.90;;;;;;5099202;28;20445;-76
2022/02/25 00:13:03;;;;;;;9.70;1.90;;;4.00;99.90;;;;;;5099822;28;20434;-77
2022/02/25 00:15:30;;;;;;;5.57;1.60;;;4.00;99.90;;;;;;5098044;28;20427;-76
2022/02/25 00:17:57;;;;;;;10.90;1.60;;;3.90;99.90;;;;;;5098801;28;20470;-76
2022/02/25 00:20:24;;;;;;;4.47;1.63;;;3.80;99.90;;;;;;5098512;28;20430;-78
2022/02/25 00:22:50;;;;;;;10.43;1.50;;;3.80;99.90;;;;;;5097625;28;20452;-81
2022/02/25 00:25:17;;;;;;;9.57;1.70;;;3.80;99.90;;;;;;5097760;28;20444;-80
2022/02/25 00:27:46;;;;;;;4.50;1.67;;;3.80;99.90;;;;;;5079966;28;20504;-76
2022/02/25 00:30:14;;;;;;;9.93;2.40;;;3.80;99.90;;;;;;5097252;28;20429;-77
2022/02/25 00:32:41;;;;;;;12.37;2.13;;;4.00;99.90;;;;;;5098889;28;20216;-77
2022/02/25 00:35:09;;;;;;;21.40;4.77;;;3.90;99.90;;;;;;5099230;28;20449;-77
2022/02/25 00:37:36;;;;;;;6.93;1.90;;;3.90;99.90;;;;;;5097014;28;20495;-76
2022/02/25 00:40:03;;;;;;;8.27;2.33;;;3.90;99.90;;;;;;5097487;28;20905;-77
2022/02/25 00:42:30;;;;;;;9.33;1.90;;;3.80;99.90;;;;;;5097696;28;20474;-77
2022/02/25 00:44:59;;;;;;;6.93;1.87;;;3.80;99.90;;;;;;5099213;28;20427;-77
2022/02/25 00:47:26;;;;;;;8.23;2.57;;;3.70;99.90;;;;;;5098106;28;20477;-77
2022/02/25 00:49:52;;;;;;;12.82;2.60;;;3.80;99.90;;;;;;5097844;28;20437;-77
2022/02/25 00:52:19;;;;;;;4.37;1.90;;;3.80;99.90;;;;;;5097505;28;20205;-77
2022/02/25 00:54:46;;;;;;;8.67;1.73;;;3.70;99.90;;;;;;5097673;28;20505;-77
2022/02/25 00:57:14;;;;;;;9.30;1.87;;;3.70;99.90;;;;;;5098272;28;20450;-77
2022/02/25 00:59:41;;;;;;;6.47;1.67;;;3.60;99.90;;;;;;5098222;28;20795;-80
2022/02/25 01:02:09;;;;;;;10.17;2.70;;;3.60;99.90;;;;;;5097440;28;20441;-81
2022/02/25 01:04:36;;;;;;;7.40;3.60;;;3.60;99.90;;;;;;5097534;28;20442;-78
2022/02/25 01:07:05;;;;;;;10.73;2.00;;;3.60;99.90;;;;;;5096600;28;20440;-81
2022/02/25 01:09:32;;;;;;;8.03;1.80;;;3.60;99.90;;;;;;5095668;28;20485;-77
2022/02/25 01:11:59;;;;;;;11.80;2.73;;;3.50;99.90;;;;;;5096844;28;20957;-76
2022/02/25 01:14:26;;;;;;;9.33;1.60;;;3.60;99.90;;;;;;5097390;28;20445;-77
2022/02/25 01:16:52;;;;;;;15.93;2.30;;;3.60;99.90;;;;;;5096745;28;20859;-76
2022/02/25 01:19:20;;;;;;;9.40;2.50;;;3.60;99.90;;;;;;5097418;28;20426;-77
2022/02/25 01:21:48;;;;;;;12.80;2.00;;;3.60;99.90;;;;;;5096741;28;20951;-77
2022/02/25 01:24:15;;;;;;;10.60;2.07;;;3.50;99.90;;;;;;5096112;28;20477;-77
2022/02/25 01:26:42;;;;;;;6.00;2.20;;;3.60;99.90;;;;;;5096655;28;20437;-76
2022/02/25 01:29:09;;;;;;;9.53;2.00;;;3.60;99.90;;;;;;5097559;28;20482;-77
2022/02/25 01:31:36;;;;;;;12.18;2.80;;;3.60;99.90;;;;;;5096621;28;20422;-77
2022/02/25 01:34:02;;;;;;;11.13;2.07;;;3.60;99.90;;;;;;5097792;28;20201;-77
2022/02/25 01:36:31;;;;;;;12.87;2.07;;;3.60;99.90;;;;;;5097871;28;20421;-77
2022/02/25 01:39:02;;;;;;;9.50;2.07;;;3.60;99.90;;;;;;5097074;28;20446;-77
2022/02/25 01:41:30;;;;;;;14.87;2.43;;;3.50;99.90;;;;;;5097144;28;20456;-77
2022/02/25 01:44:15;;;;;;;8.80;2.37;;;3.50;99.90;;;;;;5096864;28;20454;-78
2022/02/25 01:46:46;;;;;;;10.10;2.00;;;3.50;99.90;;;;;;5096120;28;20950;-77
2022/02/25 01:49:13;;;;;;;9.67;1.80;;;3.50;99.90;;;;;;5096870;28;20493;-76
2022/02/25 01:51:42;;;;;;;13.33;1.80;;;3.50;99.90;;;;;;5097288;28;20429;-78
2022/02/25 01:54:10;;;;;;;11.23;2.83;;;3.50;99.90;;;;;;5095802;28;20437;-77
2022/02/25 01:56:40;;;;;;;8.03;2.27;;;3.60;99.90;;;;;;5097309;28;20205;-81
2022/02/25 01:59:07;;;;;;;8.17;2.10;;;3.50;99.90;;;;;;5096692;28;20442;-77
2022/02/25 02:01:36;;;;;;;10.37;1.90;;;3.50;99.90;;;;;;5096406;28;20434;-83
2022/02/25 02:04:04;;;;;;;11.07;2.17;;;3.60;99.90;;;;;;5096920;28;20440;-80
2022/02/25 02:06:31;;;;;;;7.73;2.23;;;3.60;99.90;;;;;;5095973;28;20430;-77
2022/02/25 02:09:00;;;;;;;9.43;1.93;;;3.60;99.90;;;;;;5096247;28;20469;-77
2022/02/25 02:11:29;;;;;;;9.90;1.70;;;3.50;99.90;;;;;;5097628;28;20422;-76
2022/02/25 02:13:56;;;;;;;5.07;1.90;;;3.50;99.90;;;;;;5097743;28;20428;-77
2022/02/25 02:16:23;;;;;;;11.98;2.90;;;3.40;99.90;;;;;;5097065;28;20422;-77
2022/02/25 02:18:49;;;;;;;8.70;2.40;;;3.50;99.90;;;;;;5096827;28;20663;-77
2022/02/25 02:21:17;;;;;;;9.30;2.50;;;3.60;99.90;;;;;;5096797;28;20449;-77
2022/02/25 02:23:45;;;;;;;9.83;2.80;;;3.60;99.90;;;;;;5096310;28;20450;-77
2022/02/25 02:26:12;;;;;;;14.20;2.47;;;3.60;99.90;;;;;;5096718;28;20448;-77
2022/02/25 02:28:39;;;;;;;11.00;2.30;;;3.60;99.90;;;;;;5096157;28;20488;-76
2022/02/25 02:31:06;;;;;;;9.13;2.33;;;3.50;99.90;;;;;;5097281;28;20473;-76
2022/02/25 02:33:34;;;;;;;10.27;2.47;;;3.60;99.90;;;;;;5096178;28;20445;-77
2022/02/25 02:36:01;;;;;;;11.83;2.10;;;3.60;99.90;;;;;;5097185;28;20460;-77
2022/02/25 02:38:27;;;;;;;9.70;2.00;;;3.60;99.90;;;;;;5095856;28;20449;-77
2022/02/25 02:40:56;;;;;;;6.80;1.77;;;3.60;99.90;;;;;;5096288;28;20446;-79
2022/02/25 02:43:23;;;;;;;10.57;1.90;;;3.50;99.90;;;;;;5096261;28;20445;-82
2022/02/25 02:45:52;;;;;;;10.93;2.27;;;3.50;99.90;;;;;;5096663;28;20430;-80
2022/02/25 02:48:19;;;;;;;9.73;2.23;;;3.50;99.90;;;;;;5095804;28;20492;-82
2022/02/25 02:50:48;;;;;;;13.33;2.53;;;3.50;99.90;;;;;;5096740;28;20433;-77
2022/02/25 02:53:16;;;;;;;12.37;2.20;;;3.50;99.90;;;;;;5097292;28;20458;-76
2022/02/25 02:55:43;;;;;;;15.83;2.93;;;3.50;99.90;;;;;;5097586;28;20463;-77
2022/02/25 02:58:12;;;;;;;5.13;2.10;;;3.40;99.90;;;;;;5096576;28;20446;-76
2022/02/25 03:00:40;;;;;;;15.07;2.43;;;3.40;99.90;;;;;;5095854;28;20430;-77
2022/02/25 03:03:08;;;;;;;8.27;2.20;;;3.40;99.90;;;;;;5097289;28;20448;-77
2022/02/25 03:05:36;;;;;;;8.70;2.20;;;3.50;99.90;;;;;;5100623;28;20525;-77
2022/02/25 03:08:04;;;;;;;12.23;2.03;;;3.40;99.90;;;;;;5099412;28;20454;-77
2022/02/25 03:10:31;;;;;;;9.13;2.57;;;3.50;99.90;;;;;;5099680;28;20441;-81
2022/02/25 03:12:58;;;;;;;10.70;2.50;;;3.50;99.90;;;;;;5100045;28;20445;-78
2022/02/25 03:15:26;;;;;;;14.17;2.77;;;3.50;99.90;;;;;;5099537;28;20451;-77
2022/02/25 03:17:53;;;;;;;10.20;1.87;;;3.50;99.90;;;;;;5100199;28;20437;-80
2022/02/25 03:20:22;;;;;;;9.20;2.17;;;3.50;99.90;;;;;;5099764;28;20461;-77
2022/02/25 03:22:48;;;;;;;12.38;3.30;;;3.60;99.90;;;;;;5099170;28;20493;-77
2022/02/25 03:25:16;;;;;;;8.83;2.10;;;3.60;99.90;;;;;;5100989;28;20193;-78
2022/02/25 03:27:43;;;;;;;16.03;2.53;;;3.60;99.90;;;;;;5100551;28;20445;-83
2022/02/25 03:30:13;;;;;;;11.97;2.47;;;3.60;99.90;;;;;;5099174;28;20469;-83
2022/02/25 03:32:43;;;;;;;12.90;2.17;;;3.60;99.90;;;;;;5101754;28;20442;-81
2022/02/25 03:35:13;;;;;;;17.40;2.97;;;3.50;99.90;;;;;;5098727;28;20456;-79
2022/02/25 03:37:40;;;;;;;14.97;2.70;;;3.40;99.90;;;;;;5100255;28;20434;-80
2022/02/25 03:40:09;;;;;;;13.13;2.67;;;3.40;99.90;;;;;;5098926;28;20461;-77
2022/02/25 03:42:37;;;;;;;12.17;3.00;;;3.20;99.90;;;;;;5099242;28;20436;-82
2022/02/25 03:45:05;;;;;;;15.25;3.85;;;3.20;99.90;;;;;;5099025;28;20426;-77
2022/02/25 03:47:32;;;;;;;17.90;3.30;;;3.20;99.90;;;;;;5099515;28;20225;-76
2022/02/25 03:50:00;;;;;;;17.73;3.20;;;3.20;99.90;;;;;;5098136;28;20481;-77
2022/02/25 03:52:27;;;;;;;19.77;3.40;;;3.20;99.90;;;;;;5100380;28;20457;-76
2022/02/25 03:54:54;;;;;;;15.30;3.17;;;3.10;99.90;;;;;;5099283;28;20535;-76
2022/02/25 03:57:21;;;;;;;11.40;2.77;;;3.10;99.90;;;;;;5098907;28;20437;-77
2022/02/25 03:59:48;;;;;;;16.27;3.60;;;3.00;99.90;;;;;;5098084;28;20444;-82
2022/02/25 04:02:15;;;;;;;12.90;2.93;;;3.00;99.90;;;;;;5098481;28;20463;-77
2022/02/25 04:04:42;;;;;;;11.57;3.07;;;3.00;99.90;;;;;;5098749;28;20434;-77
2022/02/25 04:07:11;;;;;;;13.87;2.97;;;3.00;99.90;;;;;;5098459;28;20463;-76
2022/02/25 04:09:38;;;;;;;14.77;2.60;;;3.00;99.90;;;;;;5098403;28;20511;-77
2022/02/25 04:12:05;;;;;;;17.87;2.83;;;3.00;99.90;;;;;;5099851;28;20429;-82
2022/02/25 04:14:32;;;;;;;16.17;3.17;;;3.00;99.90;;;;;;5098459;28;20437;-80
2022/02/25 04:16:59;;;;;;;11.40;2.63;;;2.90;99.90;;;;;;5097249;28;20434;-76
2022/02/25 04:19:26;;;;;;;14.67;2.83;;;2.90;99.90;;;;;;5098717;28;20441;-78
2022/02/25 04:21:53;;;;;;;17.17;3.03;;;3.00;99.90;;;;;;5099685;28;20441;-83
2022/02/25 04:24:21;;;;;;;14.20;2.80;;;3.10;99.90;;;;;;5097297;28;20908;-77
2022/02/25 04:26:47;;;;;;;14.60;3.65;;;3.00;99.90;;;;;;5097875;28;20425;-77
2022/02/25 04:29:16;;;;;;;13.17;3.00;;;3.10;99.90;;;;;;5100130;28;20220;-76
2022/02/25 04:31:43;;;;;;;17.13;3.00;;;3.20;99.90;;;;;;5098361;28;20564;-76
2022/02/25 04:34:09;;;;;;;9.33;2.37;;;3.20;99.90;;;;;;5097688;28;20441;-77
2022/02/25 04:36:37;;;;;;;13.53;3.60;;;3.30;99.90;;;;;;5100330;28;20791;-77
2022/02/25 04:39:06;;;;;;;17.57;3.03;;;3.30;99.90;;;;;;5114864;28;20560;-76
2022/02/25 04:41:34;;;;;;;12.43;3.07;;;3.40;99.90;;;;;;5115356;28;20449;-76
2022/02/25 04:44:02;;;;;;;16.93;2.50;;;3.40;99.90;;;;;;5116170;28;20982;-77
2022/02/25 04:46:30;;;;;;;11.87;2.63;;;3.50;99.90;;;;;;5117851;28;20784;-77
2022/02/25 04:48:57;;;;;;;12.93;2.50;;;3.60;99.90;;;;;;5119172;28;20482;-76
2022/02/25 04:51:26;;;;;;;13.20;3.07;;;3.70;99.90;;;;;;5120272;28;20445;-77
2022/02/25 04:53:53;;;;;;;13.87;3.10;;;3.70;99.90;;;;;;5118432;28;20447;-76
2022/02/25 04:56:26;;;;;;;11.97;2.77;;;3.80;99.90;;;;;;5119023;28;20463;-82
2022/02/25 04:58:54;;;;;;;14.33;2.53;;;3.80;99.90;;;;;;5118223;28;20432;-77
2022/02/25 05:01:21;;;;;;;12.30;2.77;;;3.80;99.90;;;;;;5117564;28;20443;-82
2022/02/25 05:03:47;;;;;;;13.40;3.10;;;3.90;99.90;;;;;;5118675;28;20459;-77
2022/02/25 05:06:18;;;;;;;12.83;2.40;;;4.00;99.90;;;;;;5117246;28;20438;-78
2022/02/25 05:08:46;;;;;;;14.57;3.13;;;4.10;99.90;;;;;;5116719;28;20425;-79
2022/02/25 05:11:13;;;;;;;11.57;2.10;;;4.10;99.90;;;;;;5116416;28;20927;-76
2022/02/25 05:13:40;;;;;;;17.37;2.60;;;4.10;99.90;;;;;;5116970;28;20435;-77
2022/02/25 05:21:39;;;;;;;7.77;2.60;;;4.00;99.90;;;;;;5115900;28;20424;-81
2022/02/25 05:24:07;;;;;;;12.10;2.70;;;4.00;99.90;;;;;;5116503;28;20436;-78
2022/02/25 05:26:34;;;;;;;12.13;2.23;;;4.00;99.90;;;;;;5117487;28;20448;-80
2022/02/25 05:29:01;;;;;;;10.33;2.77;;;4.10;99.90;;;;;;5116597;28;20501;-80
2022/02/25 05:31:30;;;;;;;12.40;2.40;;;4.10;99.90;;;;;;5117963;28;20807;-77
2022/02/25 05:33:57;;;;;;;16.50;2.43;;;4.30;99.90;;;;;;5117368;28;20426;-76
2022/02/25 05:36:23;;;;;;;11.80;3.17;;;4.30;99.90;;;;;;5116369;28;20939;-77
2022/02/25 05:38:50;;;;;;;16.43;2.80;;;4.40;99.90;;;;;;5116320;28;20456;-77
2022/02/25 05:41:17;;;;;;;7.80;1.97;;;4.40;99.90;;;;;;5117063;28;20945;-77
2022/02/25 05:43:44;;;;;;;13.27;2.43;;;4.40;99.90;;;;;;5116879;28;20438;-76
2022/02/25 05:46:11;;;;;;;14.90;2.80;;;4.50;99.90;;;;;;5116555;28;20441;-76
2022/02/25 05:48:40;;;;;;;8.77;2.00;;;4.50;99.90;;;;;;5116622;28;20464;-77
2022/02/25 05:51:06;;;;;;;13.40;2.87;;;4.60;99.90;;;;;;5116926;28;20433;-77
2022/02/25 05:53:33;;;;;;;7.20;2.50;;;4.60;99.90;;;;;;5115607;28;20448;-76
2022/02/25 05:56:00;;;;;;;13.73;2.33;;;4.60;99.90;;;;;;5116438;28;20425;-76
2022/02/25 05:58:27;;;;;;;12.83;2.60;;;4.60;99.90;;;;;;5117273;28;20429;-77
2022/02/25 06:00:54;;;;;;;10.03;2.03;;;4.60;99.90;;;;;;5113595;28;20457;-76
2022/02/25 06:03:21;;;;;;;9.40;1.80;;;4.60;99.90;;;;;;5096000;28;20956;-77
2022/02/25 06:05:50;;;;;;;15.63;3.03;;;4.60;99.90;;;;;;5095156;28;20426;-78
2022/02/25 06:08:16;;;;;;;12.77;2.40;;;4.60;99.90;;;;;;5094842;28;20212;-81
2022/02/25 06:10:43;;;;;;;14.50;2.37;;;4.70;99.90;;;;;;5095545;28;20968;-80
2022/02/25 06:13:10;;;;;;;12.03;2.10;;;4.70;99.90;;;;;;5096685;28;20433;-77
2022/02/25 06:15:38;;;;;;;12.27;2.77;;;4.70;99.90;;;;;;5096258;28;20491;-82
2022/02/25 06:18:05;;;;;;;12.80;2.80;;;4.70;99.90;;;;;;5096248;28;20502;-76
2022/02/25 06:20:32;;;;;;;10.93;2.03;;;4.70;99.90;;;;;;5097249;28;20512;-77
2022/02/25 06:23:00;;;;;;;13.90;3.37;;;4.70;99.90;;;;;;5098069;28;20460;-76
2022/02/25 06:25:27;;;;;;;15.47;2.93;;;4.70;99.90;;;;;;5098926;28;20430;-82
2022/02/25 06:27:54;;;;;;;14.53;3.27;;;4.80;99.90;;;;;;5099627;28;20932;-76
2022/02/25 06:30:21;;;;;;;13.23;3.22;;;4.80;99.90;;;;;;5096676;28;20517;-77
2022/02/25 06:32:47;;;;;;;13.57;3.53;;;4.80;99.90;;;;;;5098252;28;20193;-77
2022/02/25 06:35:14;;;;;;;13.13;2.73;;;4.80;99.90;;;;;;5098355;28;20192;-77
2022/02/25 06:37:41;;;;;;;15.07;3.10;;;4.80;99.90;;;;;;5096918;28;20438;-82
2022/02/25 06:40:12;;;;;;;19.10;3.00;;;4.80;99.90;;;;;;5101794;28;20437;-77
2022/02/25 06:42:39;;;;;;;22.40;2.43;;;4.80;99.90;;;;;;5101551;28;20824;-79
2022/02/25 06:45:06;;;;;;;14.93;2.50;;;4.80;99.90;;;;;;5101379;28;20810;-77
2022/02/25 06:47:33;;;;;;;13.87;2.27;;;4.80;99.90;;;;;;5101941;28;20507;-81
2022/02/25 06:50:00;;;;;;;11.47;2.93;;;4.80;99.90;;;;;;5100319;28;20477;-81
2022/02/25 06:52:27;;;;;;;18.27;3.33;;;4.80;99.90;;;;;;5102482;28;20441;-77
2022/02/25 06:54:54;;;;;;;16.83;2.60;;;4.70;99.90;;;;;;5101431;28;20920;-77
2022/02/25 06:57:22;;;;;;;13.93;3.27;;;4.80;99.90;;;;;;5101480;28;20453;-77
2022/02/25 06:59:49;;;;;;;13.83;2.37;;;4.90;99.90;;;;;;5100687;28;20498;-77
2022/02/25 07:02:15;;;;;;;7.03;2.27;;;4.90;99.90;;;;;;5100213;28;20434;-76
2022/02/25 07:04:42;;;;;;;12.50;2.60;;;5.00;99.90;;;;;;5100486;28;20921;-82
2022/02/25 07:07:09;;;;;;;14.13;2.73;;;5.00;99.90;;;;;;5099517;28;20438;-76
2022/02/25 07:09:36;;;;;;;11.07;2.87;;;5.00;99.90;;;;;;5101089;28;20229;-77
2022/02/25 07:12:03;;;;;;;15.37;3.33;;;5.10;99.90;;;;;;5101152;28;20200;-76
2022/02/25 07:14:33;;;;;;;14.00;3.00;;;5.10;99.90;;;;;;5100817;28;20429;-76
2022/02/25 07:17:01;;;;;;;15.53;2.87;;;5.10;99.90;;;;;;5102437;28;20426;-81
2022/02/25 07:19:27;;;;;;;16.75;3.75;;;5.10;99.90;;;;;;5100925;28;20419;-82
2022/02/25 07:21:54;;;;;;;15.13;2.90;;;5.20;99.90;;;;;;5099786;28;20686;-77
2022/02/25 07:24:21;;;;;;;13.90;2.40;;;5.20;99.90;;;;;;5100120;28;20442;-78
2022/02/25 07:26:48;;;;;;;9.80;2.97;;;5.20;99.90;;;;;;5101226;28;20438;-79
2022/02/25 07:29:15;;;;;;;12.20;2.90;;;5.20;99.90;;;;;;5099466;28;20281;-79
2022/02/25 07:31:44;;;;;;;10.57;2.43;;;5.20;99.90;;;;;;5098475;28;20205;-77
2022/02/25 07:34:14;;;;;;;14.33;2.83;;;5.20;99.90;;;;;;5099409;28;20452;-77
2022/02/25 07:36:41;;;;;;;10.73;2.33;;;5.20;99.90;;;;;;5098950;28;20640;-77
2022/02/25 07:39:07;;;;;;;12.57;3.17;;;5.20;99.90;;;;;;5097076;28;20583;-77
2022/02/25 07:41:35;;;;;;;12.93;2.63;;;5.20;99.90;;;;;;5097318;28;20300;-77
2022/02/25 07:44:02;;;;;;;13.53;2.87;;;5.20;99.90;;;;;;5097147;28;20762;-76
2022/02/25 07:46:29;;;;;;;14.87;3.37;;;5.20;99.90;;;;;;5097122;28;20448;-77
2022/02/25 07:48:57;;;;;;;14.73;3.13;;;5.20;99.90;;;;;;5097520;28;20224;-77
2022/02/25 07:51:26;;;;;;;9.03;2.77;;;5.20;99.90;;;;;;5097919;28;20485;-77
2022/02/25 07:53:54;;;;;;;14.37;2.53;;;5.30;99.90;;;;;;5098426;28;20470;-77
2022/02/25 07:56:21;;;;;;;17.13;3.17;;;5.40;99.90;;;;;;5096371;28;20856;-76
2022/02/25 07:58:48;;;;;;;13.47;2.87;;;5.40;99.90;;;;;;5096482;28;20444;-77
2022/02/25 08:01:15;;;;;;;14.27;2.87;;;5.40;99.90;;;;;;5097549;28;20543;-78
2022/02/25 08:03:42;;;;;;;16.10;2.93;;;5.40;99.90;;;;;;5096901;28;20213;-76
2022/02/25 08:06:11;;;;;;;16.70;3.43;;;5.50;99.90;;;;;;5097681;28;20185;-81
2022/02/25 08:08:38;;;;;;;14.10;2.73;;;5.60;99.90;;;;;;5096985;28;20189;-78
2022/02/25 08:11:05;;;;;;;10.23;2.80;;;5.60;99.90;;;;;;5097095;28;20236;-80
2022/02/25 08:13:32;;;;;;;15.67;2.70;;;5.80;99.90;;;;;;5098397;28;20520;-78
2022/02/25 08:15:59;;;;;;;12.47;2.27;;;5.80;99.90;;;;;;5100350;28;20207;-76
2022/02/25 08:18:26;;;;;;;12.23;2.80;;;5.80;99.90;;;;;;5100021;28;20189;-77
2022/02/25 08:20:53;;;;;;;12.53;2.50;;;5.80;99.90;;;;;;5099807;28;20212;-80
2022/02/25 08:23:23;;;;;;;14.17;2.87;;;5.90;99.90;;;;;;5098360;28;20198;-78
2022/02/25 08:25:50;;;;;;;9.97;2.60;;;5.80;99.90;;;;;;5099094;28;20201;-77
2022/02/25 08:28:18;;;;;;;12.13;3.07;;;5.90;99.90;;;;;;5105329;28;20192;-78
2022/02/25 08:30:46;;;;;;;15.85;3.33;;;5.90;99.90;;;;;;5116511;28;20450;-76
2022/02/25 08:33:14;;;;;;;16.43;3.43;;;5.90;99.90;;;;;;5117152;28;20196;-76
2022/02/25 08:35:42;;;;;;;18.97;3.00;;;6.00;99.90;;;;;;5119587;28;20189;-76
2022/02/25 08:38:09;;;;;;;15.20;3.40;;;6.10;99.90;;;;;;5118208;28;20204;-77
2022/02/25 08:40:39;;;;;;;10.87;2.63;;;6.20;99.90;;;;;;5118234;28;20271;-77
2022/02/25 08:43:06;;;;;;;10.87;2.23;;;6.20;99.90;;;;;;5119071;28;20552;-77
2022/02/25 08:45:34;;;;;;;12.33;2.77;;;6.10;99.90;;;;;;5117266;28;20200;-77
2022/02/25 08:48:01;;;;;;;11.70;3.07;;;6.10;99.90;;;;;;5118282;28;20288;-82
2022/02/25 08:50:27;;;;;;;13.10;3.00;;;6.10;99.90;;;;;;5118189;28;20246;-77
2022/02/25 08:52:55;;;;;;;16.93;3.13;;;6.00;99.90;;;;;;5117365;28;20222;-78
2022/02/25 08:55:24;;;;;;;15.23;3.83;;;6.00;99.90;;;;;;5118055;28;20474;-79
2022/02/25 08:57:54;;;;;;;16.30;3.30;;;6.10;99.90;;;;;;5117249;28;20196;-81
2022/02/25 09:00:24;;;;;;;18.30;3.20;;;6.10;99.90;;;;;;5118047;28;20193;-77
2022/02/25 09:02:53;;;;;;;15.43;3.07;;;6.10;99.90;;;;;;5117149;28;20195;-79
2022/02/25 09:05:22;;;;;;;12.70;2.90;;;6.20;99.90;;;;;;5113272;28;20207;-79
2022/02/25 09:07:50;;;;;;;15.07;2.53;;;6.30;99.90;;;;;;5097159;28;20608;-82
2022/02/25 09:10:19;;;;;;;13.70;3.30;;;6.30;99.90;;;;;;5118067;28;20228;-77
2022/02/25 09:12:49;;;;;;;23.07;3.37;;;6.40;99.90;;;;;;5117825;28;20204;-80
2022/02/25 09:15:22;;;;;;;11.10;3.03;;;6.40;99.90;;;;;;5120141;28;20200;-77
2022/02/25 09:17:49;;;;;;;14.27;3.00;;;6.50;99.90;;;;;;5119182;28;20196;-77
2022/02/25 09:20:16;;;;;;;16.20;4.00;;;6.60;99.90;;;;;;5119040;28;20488;-76
2022/02/25 09:22:43;;;;;;;19.03;3.60;;;6.70;99.90;;;;;;5118169;28;20211;-76
2022/02/25 09:25:10;;;;;;;14.87;3.07;;;6.80;99.90;;;;;;5121721;28;20189;-77
2022/02/25 09:27:37;;;;;;;14.90;3.17;;;6.80;99.90;;;;;;5121603;28;20193;-78
2022/02/25 09:30:07;;;;;;;17.63;3.03;;;6.70;99.90;;;;;;5120350;28;20254;-77
2022/02/25 09:32:36;;;;;;;16.03;3.33;;;6.80;99.90;;;;;;5122370;28;20204;-78
2022/02/25 09:35:03;;;;;;;15.27;2.97;;;6.80;99.90;;;;;;5120051;28;20200;-76
2022/02/25 09:37:34;;;;;;;15.90;3.00;;;6.90;99.90;;;;;;5118120;28;20203;-77
2022/02/25 09:40:01;;;;;;;13.70;3.53;;;7.00;99.90;;;;;;5117170;28;20193;-77
2022/02/25 09:42:28;;;;;;;13.13;3.40;;;7.00;99.90;;;;;;5116698;28;20196;-76
2022/02/25 09:44:55;;;;;;;13.23;3.63;;;7.10;99.90;;;;;;5117554;28;20432;-77
2022/02/25 09:47:27;;;;;;;16.47;3.27;;;7.20;99.90;;;;;;5117925;28;20216;-78
2022/02/25 09:49:55;;;;;;;11.57;3.20;;;7.40;99.90;;;;;;5118401;28;20674;-78
2022/02/25 09:52:22;;;;;;;19.60;3.60;;;7.50;99.90;;;;;;5117329;28;20215;-79
2022/02/25 09:54:49;;;;;;;17.47;3.17;;;7.70;99.90;;;;;;5120796;28;20681;-80
2022/02/25 09:57:16;;;;;;;16.83;3.10;;;7.60;99.90;;;;;;5117380;28;20208;-81
2022/02/25 09:59:43;;;;;;;12.80;2.80;;;7.60;99.90;;;;;;5118550;28;20672;-81
2022/02/25 10:02:10;;;;;;;16.63;3.67;;;7.60;99.90;;;;;;5118962;28;20272;-79
2022/02/25 10:04:37;;;;;;;9.60;3.13;;;7.50;99.90;;;;;;5115262;28;20192;-76
2022/02/25 10:07:23;;;;;;;13.97;3.20;;;7.50;99.90;;;;;;5114284;28;20592;-76
2022/02/25 10:09:52;;;;;;;13.03;2.80;;;7.40;99.90;;;;;;5114825;28;20637;-77
2022/02/25 10:12:19;;;;;;;15.23;2.83;;;7.50;99.90;;;;;;5116178;28;20216;-76
2022/02/25 10:14:48;;;;;;;17.20;3.67;;;7.50;99.90;;;;;;5118531;28;20607;-77
2022/02/25 10:17:17;;;;;;;18.97;3.23;;;7.50;99.90;;;;;;5118831;28;20578;-76
2022/02/25 10:19:45;;;;;;;11.73;2.80;;;7.70;99.90;;;;;;5118894;28;20669;-77
2022/02/25 10:22:23;;;;;;;13.33;2.60;;;7.90;99.90;;;;;;5118787;28;20215;-77
2022/02/25 10:24:52;;;;;;;14.13;2.67;;;7.80;99.90;;;;;;5119018;28;20199;-77
2022/02/25 10:27:23;;;;;;;17.00;3.65;;;7.90;99.90;;;;;;5118139;28;20425;-77
2022/02/25 10:30:09;;;;;;;8.87;2.47;;;8.00;99.90;;;;;;5118896;28;20204;-77
2022/02/25 10:32:39;;;;;;;21.40;3.20;;;8.20;99.90;;;;;;5119296;28;20197;-76
2022/02/25 10:35:28;;;;;;;12.97;2.47;;;8.20;99.90;;;;;;5119342;28;20230;-81
2022/02/25 10:38:02;;;;;;;9.97;2.50;;;8.10;99.90;;;;;;5120129;28;20208;-84
2022/02/25 10:40:32;;;;;;;11.30;3.00;;;8.00;99.90;;;;;;5120138;28;20196;-80
2022/02/25 10:42:59;;;;;;;13.90;3.40;;;8.00;99.90;;;;;;5119193;28;20211;-79
2022/02/25 10:45:28;;;;;;;9.57;2.60;;;8.20;99.90;;;;;;5120196;28;20204;-80
2022/02/25 10:47:59;;;;;;;5.37;2.03;;;8.20;99.90;;;;;;5119388;28;20221;-79
2022/02/25 10:50:27;;;;;;;13.43;3.27;;;8.30;99.90;;;;;;5117530;28;20596;-79
2022/02/25 10:52:55;;;;;;;18.97;3.57;;;8.30;99.90;;;;;;5118224;28;20240;-79
2022/02/25 10:55:25;;;;;;;12.97;2.43;;;8.50;99.90;;;;;;5118412;28;20200;-76
2022/02/25 10:57:53;;;;;;;11.67;2.80;;;8.40;99.90;;;;;;5119282;28;20193;-77
2022/02/25 11:00:22;;;;;;;16.30;2.90;;;8.30;99.90;;;;;;5119136;28;20189;-77
2022/02/25 11:02:50;;;;;;;10.40;2.57;;;8.30;99.90;;;;;;5118516;28;20720;-77
2022/02/25 11:05:20;;;;;;;10.17;2.30;;;8.30;99.90;;;;;;5117507;28;20204;-77
2022/02/25 11:07:48;;;;;;;12.87;2.80;;;8.30;99.90;;;;;;5117895;28;20199;-77
2022/02/25 11:10:17;;;;;;;12.00;2.83;;;8.40;99.90;;;;;;5117249;28;20223;-77
2022/02/25 11:12:46;;;;;;;15.27;2.73;;;8.50;99.90;;;;;;5118666;28;20224;-77
2022/02/25 11:15:16;;;;;;;13.63;3.40;;;8.70;99.90;;;;;;5118769;28;20424;-78
2022/02/25 11:17:44;;;;;;;7.97;2.00;;;8.80;99.90;;;;;;5119693;28;20226;-77
2022/02/25 11:20:13;;;;;;;8.80;2.47;;;8.70;99.90;;;;;;5119518;28;20196;-78
2022/02/25 11:22:42;;;;;;;9.17;2.50;;;8.80;99.90;;;;;;5121800;28;20658;-78
2022/02/25 11:25:14;;;;;;;11.50;2.63;;;8.80;99.90;;;;;;5119035;28;20204;-77
2022/02/25 11:27:42;;;;;;;13.57;2.60;;;8.80;99.90;;;;;;5123668;28;20193;-78
2022/02/25 11:30:14;;;;;;;13.60;2.40;;;8.70;99.90;;;;;;5122950;28;20282;-77
2022/02/25 11:32:54;;;;;;;10.63;2.60;;;8.70;99.90;;;;;;5124513;28;20264;-82
2022/02/25 11:35:25;;;;;;;11.97;3.07;;;8.90;99.90;;;;;;5120195;28;20597;-76
2022/02/25 11:37:58;;;;;;;9.93;3.00;;;8.80;99.90;;;;;;5118432;28;20188;-76
2022/02/25 11:40:51;;;;;;;10.23;2.70;;;8.60;99.90;;;;;;5117208;28;20200;-81
2022/02/25 11:43:35;;;;;;;9.47;2.40;;;8.60;99.90;;;;;;5109401;28;20228;-76
2022/02/25 11:46:04;;;;;;;10.17;2.27;;;8.60;99.90;;;;;;5116139;28;20287;-77
2022/02/25 11:48:40;;;;;;;8.00;2.17;;;8.70;99.90;;;;;;5116388;28;20220;-78
2022/02/25 11:51:09;;;;;;;13.40;3.03;;;8.70;99.90;;;;;;5116642;28;20640;-77
2022/02/25 11:53:37;;;;;;;8.20;2.60;;;8.50;99.90;;;;;;5117271;28;20270;-77
2022/02/25 11:56:26;;;;;;;15.57;2.30;;;8.40;99.90;;;;;;5116338;28;20204;-77
2022/02/25 11:58:53;;;;;;;7.50;2.37;;;8.20;99.90;;;;;;5108922;28;20208;-77
2022/02/25 12:01:24;;;;;;;12.10;2.33;;;7.90;99.90;;;;;;5100580;28;20228;-80
2022/02/25 12:04:08;;;;;;;11.27;2.20;;;7.80;99.90;;;;;;5100912;28;20277;-78
2022/02/25 12:06:58;;;;;;;16.27;2.70;;;7.80;99.90;;;;;;5121679;28;20650;-79
2022/02/25 12:09:43;;;;;;;8.57;1.97;;;7.90;99.90;;;;;;5112518;28;20202;-77
2022/02/25 12:12:35;;;;;;;10.57;2.10;;;7.90;99.90;;;;;;5101294;28;20217;-78
2022/02/25 12:15:09;;;;;;;8.03;1.73;;;8.10;99.90;;;;;;5101896;28;20212;-77
2022/02/25 12:17:39;;;;;;;10.77;2.53;;;8.20;99.90;;;;;;5105268;28;20651;-77
2022/02/25 12:20:09;;;;;;;10.63;2.60;;;8.30;99.90;;;;;;5101909;28;20205;-77
2022/02/25 12:23:00;;;;;;;10.43;2.63;;;8.50;99.90;;;;;;5102702;28;20208;-81
2022/02/25 12:25:48;;;;;;;15.13;2.88;;;8.70;99.90;;;;;;5099480;28;20466;-84
2022/02/25 12:28:49;;;;;;;10.43;2.23;;;8.80;99.90;;;;;;5101841;28;20265;-78
2022/02/25 12:31:19;;;;;;;14.47;3.13;;;8.70;99.90;;;;;;5101898;28;20224;-81
2022/02/25 12:34:00;;;;;;;15.80;3.23;;;8.70;99.90;;;;;;5109372;28;20640;-78
2022/02/25 12:36:44;;;;;;;14.07;2.63;;;8.50;99.90;;;;;;5103572;28;20200;-82
2022/02/25 12:39:31;;;;;;;11.90;2.80;;;8.10;99.90;;;;;;5100510;28;20205;-79
2022/02/25 12:42:05;;;;;;;14.80;2.70;;;7.80;99.90;;;;;;5109155;28;20243;-80
2022/02/25 12:44:34;;;;;;;5.53;1.60;;;7.70;99.90;;;;;;5102891;28;20192;-77
2022/02/25 12:47:03;;;;;;;7.53;1.90;;;7.70;99.90;;;;;;5101690;28;20217;-82
2022/02/25 12:49:34;;;;;;;6.57;2.27;;;7.60;99.90;;;;;;5101911;28;20207;-83
2022/02/25 12:52:05;;;;;;;12.37;2.63;;;7.50;99.90;;;;;;5103147;28;20228;-81
2022/02/25 12:54:34;;;;;;;10.50;2.50;;;7.50;99.90;;;;;;5116846;28;20200;-82
2022/02/25 12:57:03;;;;;;;17.50;3.00;;;7.50;99.90;;;;;;5120674;28;20200;-78
2022/02/25 12:59:37;;;;;;;11.43;2.50;;;7.80;99.90;;;;;;5119964;28;20201;-76
2022/02/25 13:02:11;;;;;;;7.53;1.90;;;8.00;99.90;;;;;;5118988;28;20295;-80
2022/02/25 13:04:46;;;;;;;16.93;2.30;;;8.00;99.90;;;;;;5119202;28;20633;-78